Terminal Aerodrome Forecast
Issued by NWS

Home | Current Version | Previous Version | Text Only | Print | Product List | Glossary On
Versions: 1 2 3 4 5 6 7 8 9 10 11 12 13 14
000
FTUS45 KABQ 052323
TAFSAF
TAF
KSAF 052323Z 0600/0624 14010KT P6SM BKN110
     FM060600 13013KT P6SM SCT110
     FM061700 17015KT P6SM SKC
     FM061900 18020G30KT P6SM FEW110=

USA.gov is the U.S. government's official web portal to all federal, state and local government web resources and services.